createdAt,value
2018-06-16T00:26:13.738Z,11.85
2018-06-16T00:28:44.038Z,10.43
2018-06-16T00:31:14.203Z,9.20
2018-06-16T00:36:14.119Z,5.30
2018-06-16T00:38:44.271Z,7.05
2018-06-16T02:08:24.498Z,4.72
2018-06-16T02:13:24.156Z,13.50
2018-06-16T03:05:49.606Z,5.40
2018-06-16T03:08:19.790Z,5.25
2018-06-16T03:10:50.027Z,10.70
2018-06-16T03:35:45.108Z,14.03
2018-06-16T04:00:46.826Z,7.20
2018-06-16T04:13:14.751Z,5.72
2018-06-16T04:45:38.199Z,10.50
2018-06-16T05:57:52.310Z,11.30
2018-06-16T06:00:22.474Z,9.40
2018-06-16T06:02:52.722Z,8.50
2018-06-16T06:05:22.866Z,19.77
2018-06-16T06:07:53.145Z,10.97
2018-06-16T06:10:23.411Z,10.40
2018-06-16T06:12:53.650Z,11.47
2018-06-16T06:15:23.913Z,10.43
2018-06-16T06:17:54.222Z,18.30
2018-06-16T06:20:24.374Z,11.47
2018-06-16T06:22:54.673Z,15.07
2018-06-16T06:25:24.951Z,11.60
2018-06-16T06:27:55.187Z,11.23
2018-06-16T06:30:25.524Z,10.53
2018-06-16T06:32:55.778Z,10.17
2018-06-16T06:35:26.022Z,21.30
2018-06-16T06:37:56.175Z,15.40
2018-06-16T06:40:26.438Z,15.20
2018-06-16T06:42:56.582Z,17.60
2018-06-16T06:45:26.851Z,10.83
2018-06-16T06:47:57.018Z,13.40
2018-06-16T06:50:27.487Z,10.40
2018-06-16T06:52:57.633Z,14.20
2018-06-16T06:55:27.923Z,12.67
2018-06-16T06:57:58.194Z,19.13
2018-06-16T07:00:28.434Z,15.87
2018-06-16T07:02:58.573Z,16.30
2018-06-16T07:05:28.839Z,15.60
2018-06-16T07:07:59.011Z,11.80
2018-06-16T07:10:29.285Z,11.17
2018-06-16T07:12:59.478Z,15.07
2018-06-16T07:15:29.775Z,14.23
2018-06-16T07:18:00.612Z,19.20
2018-06-16T07:20:30.881Z,14.70
2018-06-16T07:23:01.046Z,18.30
2018-06-16T07:25:31.316Z,14.07
2018-06-16T07:28:01.451Z,11.40
2018-06-16T07:30:31.741Z,13.70
2018-06-16T07:33:02.159Z,13.07
2018-06-16T07:35:32.302Z,13.57
2018-06-16T07:38:02.558Z,14.30
2018-06-16T07:40:32.704Z,13.57
2018-06-16T07:43:02.994Z,14.40
2018-06-16T07:45:33.183Z,17.30
2018-06-16T07:48:03.586Z,11.23
2018-06-16T07:50:33.755Z,12.57
2018-06-16T07:53:04.031Z,15.07
2018-06-16T07:55:34.189Z,12.17
2018-06-16T07:58:04.439Z,9.30
2018-06-16T08:00:34.619Z,9.87
2018-06-16T08:03:04.879Z,18.83
2018-06-16T08:05:35.022Z,14.60
2018-06-16T08:08:05.295Z,16.67
2018-06-16T08:10:35.426Z,14.20
2018-06-16T08:13:05.734Z,12.10
2018-06-16T08:15:35.910Z,10.73
2018-06-16T08:18:06.237Z,17.60
2018-06-16T08:20:36.385Z,16.30
2018-06-16T08:23:06.646Z,10.83
2018-06-16T08:25:37.036Z,11.20
2018-06-16T08:28:07.166Z,15.00
2018-06-16T08:30:37.477Z,13.77
2018-06-16T08:33:07.763Z,10.83
2018-06-16T08:35:38.032Z,10.40
2018-06-16T08:38:08.221Z,15.97
2018-06-16T08:40:38.482Z,8.20
2018-06-16T08:43:08.839Z,13.17
2018-06-16T08:45:39.087Z,11.03
2018-06-16T08:48:09.261Z,16.10
2018-06-16T08:50:39.527Z,12.90
2018-06-16T08:53:09.699Z,20.57
2018-06-16T08:55:40.124Z,11.03
2018-06-16T08:58:10.107Z,13.53
2018-06-16T09:00:40.411Z,20.27
2018-06-16T09:03:10.568Z,11.33
2018-06-16T09:05:40.818Z,11.17
2018-06-16T09:08:10.957Z,14.20
2018-06-16T09:10:41.200Z,9.67
2018-06-16T09:13:11.354Z,14.43
2018-06-16T09:15:41.615Z,9.70
2018-06-16T09:18:12.019Z,11.37
2018-06-16T09:20:42.274Z,16.93
2018-06-16T09:23:12.418Z,8.93
2018-06-16T09:25:42.735Z,13.77
2018-06-16T09:28:12.997Z,7.40
2018-06-16T09:30:43.150Z,11.73
2018-06-16T09:33:13.516Z,8.30
2018-06-16T09:35:43.655Z,11.77
2018-06-16T09:38:13.908Z,8.27
2018-06-16T09:40:44.080Z,14.27
2018-06-16T09:43:14.339Z,15.90
2018-06-16T09:45:44.499Z,11.33
2018-06-16T09:48:14.815Z,13.30
2018-06-16T09:50:44.926Z,8.40
2018-06-16T09:53:15.203Z,8.50
2018-06-16T09:55:45.386Z,10.17
2018-06-16T09:58:15.695Z,8.17
2018-06-16T10:00:45.857Z,10.73
2018-06-16T10:03:16.139Z,10.27
2018-06-16T10:05:46.288Z,10.20
2018-06-16T10:08:16.543Z,8.83
2018-06-16T10:10:46.733Z,15.30
2018-06-16T10:13:17.042Z,11.20
2018-06-16T10:15:47.229Z,7.53
2018-06-16T10:18:17.490Z,15.93
2018-06-16T10:20:47.673Z,7.13
2018-06-16T10:23:17.935Z,7.53
2018-06-16T10:25:49.004Z,9.00
2018-06-16T10:28:19.324Z,9.30
2018-06-16T10:30:49.481Z,9.37
2018-06-16T10:33:19.851Z,12.83
2018-06-16T10:35:50.152Z,9.00
2018-06-16T10:38:20.310Z,9.07
2018-06-16T10:40:50.539Z,8.97
2018-06-16T10:43:20.686Z,7.10
2018-06-16T10:45:50.926Z,10.70
2018-06-16T10:48:21.065Z,7.67
2018-06-16T10:50:51.318Z,5.47
2018-06-16T10:53:21.466Z,14.30
2018-06-16T10:55:51.814Z,6.90
2018-06-16T10:58:21.975Z,7.43
2018-06-16T11:00:52.258Z,7.03
2018-06-16T11:03:22.420Z,8.53
2018-06-16T11:05:52.679Z,8.00
2018-06-16T11:08:22.966Z,6.37
2018-06-16T11:10:53.222Z,11.20
2018-06-16T11:13:23.391Z,22.20
2018-06-16T11:15:54.358Z,11.30
2018-06-16T11:18:24.506Z,13.33
2018-06-16T11:20:54.976Z,17.07
2018-06-16T11:23:25.097Z,9.23
2018-06-16T11:25:55.379Z,10.70
2018-06-16T11:28:25.531Z,8.87
2018-06-16T11:30:55.797Z,8.27
2018-06-16T11:33:26.172Z,12.20
2018-06-16T11:35:56.346Z,14.43
2018-06-16T11:38:26.607Z,17.00
2018-06-16T11:40:56.751Z,13.47
2018-06-16T11:43:27.001Z,10.10
2018-06-16T11:45:57.159Z,10.30
2018-06-16T11:48:27.442Z,8.10
2018-06-16T11:50:57.591Z,10.47
2018-06-16T11:53:27.844Z,15.30
2018-06-16T11:55:57.983Z,9.50
2018-06-16T11:58:28.292Z,14.20
2018-06-16T12:00:58.431Z,8.47
2018-06-16T12:03:28.752Z,11.07
2018-06-16T12:05:58.919Z,11.63
2018-06-16T12:08:29.171Z,10.47
2018-06-16T12:10:59.374Z,5.53
2018-06-16T12:13:29.636Z,5.30
2018-06-16T12:15:59.922Z,5.20
2018-06-16T12:18:30.264Z,4.37
2018-06-16T12:21:00.539Z,5.03
2018-06-16T12:23:30.915Z,5.73
2018-06-16T12:26:01.220Z,5.97
2018-06-16T12:28:31.591Z,12.27
2018-06-16T12:31:02.016Z,7.83
2018-06-16T12:33:32.268Z,5.53
2018-06-16T12:36:02.540Z,7.37
2018-06-16T12:38:32.687Z,7.60
2018-06-16T12:41:02.949Z,6.53
2018-06-16T12:43:33.088Z,7.87
2018-06-16T12:46:03.361Z,8.37
2018-06-16T12:48:33.494Z,8.83
2018-06-16T12:51:03.742Z,6.00
2018-06-16T12:53:33.890Z,6.80
2018-06-16T12:56:04.174Z,7.10
2018-06-16T12:58:34.332Z,6.20
2018-06-16T13:01:04.569Z,6.93
2018-06-16T13:03:34.754Z,8.50
2018-06-16T13:06:05.057Z,8.37
2018-06-16T13:08:35.267Z,8.50
2018-06-16T13:11:05.529Z,11.87
2018-06-16T13:13:35.814Z,8.20
2018-06-16T13:16:06.135Z,11.40
2018-06-16T13:18:36.454Z,7.00
2018-06-16T13:21:06.611Z,7.60
2018-06-16T13:23:36.894Z,10.07
2018-06-16T13:26:07.046Z,9.60
2018-06-16T13:28:37.293Z,8.43
2018-06-16T13:31:07.444Z,9.77
2018-06-16T13:33:37.795Z,10.03
2018-06-16T13:36:07.934Z,11.00
2018-06-16T13:38:38.190Z,11.53
2018-06-16T13:41:08.343Z,8.57
2018-06-16T13:43:38.602Z,11.30
2018-06-16T13:46:08.770Z,10.50
2018-06-16T13:48:39.060Z,8.77
2018-06-16T13:51:09.234Z,9.50
2018-06-16T13:53:39.518Z,8.63
2018-06-16T13:56:09.917Z,13.60
2018-06-16T13:58:40.179Z,13.37
2018-06-16T14:11:08.186Z,15.90
2018-06-16T14:13:38.368Z,15.03
2018-06-16T14:16:08.687Z,8.43
2018-06-16T14:18:38.847Z,14.63
2018-06-16T14:21:09.170Z,7.25
2018-06-16T14:23:39.322Z,15.67
2018-06-16T14:26:09.589Z,10.53
2018-06-16T14:28:39.744Z,6.90
2018-06-16T14:31:10.002Z,4.90
2018-06-16T14:41:08.706Z,6.40
2018-06-16T14:43:38.904Z,4.95
2018-06-16T14:58:36.666Z,8.85
2018-06-16T15:01:06.822Z,6.00
2018-06-16T15:03:37.095Z,4.20
2018-06-16T15:08:36.805Z,10.15
2018-06-16T15:11:06.980Z,9.50
2018-06-16T15:13:37.384Z,9.07
2018-06-16T15:16:07.601Z,8.10
2018-06-16T15:58:28.743Z,6.60
2018-06-16T16:08:27.141Z,8.50
2018-06-16T16:18:25.630Z,15.75
2018-06-16T16:20:55.868Z,9.30
2018-06-16T16:28:24.912Z,11.60
2018-06-16T16:30:55.166Z,5.60
2018-06-16T16:33:25.332Z,14.60
2018-06-16T16:35:55.662Z,6.80
2018-06-16T16:38:25.825Z,6.10
2018-06-16T16:40:56.107Z,6.90
2018-06-16T16:43:26.299Z,6.60
2018-06-16T16:45:56.611Z,7.70
2018-06-16T16:50:56.426Z,7.50
2018-06-16T17:25:50.115Z,6.70
2018-06-16T17:28:20.378Z,5.30
2018-06-16T17:38:31.134Z,10.30
2018-06-16T17:41:01.410Z,11.10
2018-06-16T17:46:01.305Z,4.27
2018-06-16T17:51:01.115Z,12.95
2018-06-16T17:53:31.524Z,14.07
2018-06-16T18:01:00.721Z,10.17
2018-06-16T18:03:31.190Z,15.63
2018-06-16T18:06:01.355Z,17.50
2018-06-16T18:08:31.634Z,17.90
2018-06-16T18:11:02.174Z,21.90
2018-06-16T18:13:32.350Z,18.30
2018-06-16T18:16:02.718Z,14.73
2018-06-16T18:18:32.916Z,18.63
2018-06-16T18:21:03.271Z,18.10
2018-06-16T18:23:33.478Z,19.83
2018-06-16T18:26:03.831Z,17.40
2018-06-16T18:28:34.664Z,18.60
2018-06-16T18:31:05.083Z,18.60
2018-06-16T18:33:35.290Z,19.77
2018-06-16T18:36:06.048Z,18.77
2018-06-16T18:38:36.294Z,15.30
2018-06-16T18:41:06.899Z,20.80
2018-06-16T18:43:37.091Z,30.93
2018-06-16T18:46:07.533Z,20.23
2018-06-16T18:48:37.702Z,28.10
2018-06-16T18:51:08.122Z,25.80
2018-06-16T18:53:38.345Z,18.80
2018-06-16T18:56:08.928Z,18.57
2018-06-16T18:58:38.926Z,28.40
2018-06-16T19:01:09.204Z,25.87
2018-06-16T19:03:39.383Z,17.40
2018-06-16T19:06:09.759Z,23.10
2018-06-16T19:08:39.952Z,21.00
2018-06-16T19:11:10.274Z,17.20
2018-06-16T19:13:40.444Z,22.43
2018-06-16T19:16:10.837Z,18.57
2018-06-16T19:18:41.235Z,21.60
2018-06-16T19:21:11.409Z,22.70
2018-06-16T19:23:41.912Z,23.60
2018-06-16T19:26:12.358Z,22.57
2018-06-16T19:28:42.790Z,19.37
2018-06-16T19:31:13.015Z,22.73
2018-06-16T19:33:43.528Z,25.90
2018-06-16T19:36:13.800Z,24.63
2018-06-16T19:38:44.154Z,31.47
2018-06-16T19:41:14.370Z,28.50
2018-06-16T19:43:44.714Z,22.87
2018-06-16T19:46:14.879Z,28.57
2018-06-16T19:48:45.465Z,22.70
2018-06-16T19:51:15.630Z,26.57
2018-06-16T19:53:46.010Z,20.80
2018-06-16T19:56:16.195Z,31.73
2018-06-16T19:58:46.551Z,24.80
2018-06-16T20:01:16.736Z,20.90
2018-06-16T20:03:47.098Z,27.90
2018-06-16T20:06:17.295Z,23.13
2018-06-16T20:08:47.859Z,27.90
2018-06-16T20:11:18.040Z,22.37
2018-06-16T20:13:48.314Z,27.33
2018-06-16T20:16:18.801Z,25.20
2018-06-16T20:18:49.259Z,24.63
2018-06-16T20:21:19.436Z,27.13
2018-06-16T20:23:50.074Z,29.73
2018-06-16T20:26:20.538Z,33.20
2018-06-16T20:28:50.706Z,23.50
2018-06-16T20:31:21.196Z,25.40
2018-06-16T20:33:51.366Z,26.67
2018-06-16T20:36:21.944Z,36.80
2018-06-16T20:38:52.102Z,25.87
2018-06-16T20:41:22.510Z,25.87
2018-06-16T20:43:52.442Z,27.10
2018-06-16T20:46:22.750Z,28.07
2018-06-16T20:48:53.217Z,33.87
2018-06-16T20:51:23.388Z,32.17
2018-06-16T20:53:53.561Z,28.93
2018-06-16T20:56:23.937Z,25.43
2018-06-16T20:58:54.590Z,76.80
2018-06-16T21:01:25.094Z,37.53
2018-06-16T21:03:55.880Z,30.13
2018-06-16T21:06:26.262Z,40.47
2018-06-16T21:08:56.414Z,35.10
2018-06-16T21:11:26.700Z,38.07
2018-06-16T21:13:56.858Z,26.30
2018-06-16T21:16:27.267Z,29.30
2018-06-16T21:18:57.301Z,36.30
2018-06-16T21:21:27.450Z,29.03
2018-06-16T21:23:57.470Z,33.03
2018-06-16T21:26:27.855Z,30.90
2018-06-16T21:28:57.993Z,66.23
2018-06-16T21:31:28.395Z,67.00
2018-06-16T21:33:58.562Z,51.13
2018-06-16T21:36:29.137Z,25.37
2018-06-16T21:38:59.306Z,25.50
2018-06-16T21:41:29.877Z,66.00
2018-06-16T21:44:00.720Z,55.50
2018-06-16T21:46:30.879Z,35.90
2018-06-16T21:49:01.368Z,25.87
2018-06-16T21:51:31.572Z,61.23
2018-06-16T21:54:01.885Z,43.07
2018-06-16T21:56:32.214Z,41.43
2018-06-16T21:59:02.581Z,70.80
2018-06-16T22:01:35.645Z,36.70
2018-06-16T22:04:06.797Z,32.43
2018-06-16T22:06:36.966Z,41.40
2018-06-16T22:09:10.083Z,48.83
2018-06-16T22:11:40.286Z,32.80
2018-06-16T22:14:10.661Z,48.07
2018-06-16T22:16:40.837Z,37.07
2018-06-16T22:19:11.526Z,46.60
2018-06-16T22:21:41.926Z,26.33
2018-06-16T22:24:12.370Z,36.50
2018-06-16T22:26:42.551Z,23.40
2018-06-16T22:29:12.931Z,27.27
2018-06-16T22:31:42.863Z,58.63
2018-06-16T22:34:13.284Z,38.23
2018-06-16T22:36:43.443Z,33.00
2018-06-16T22:39:14.024Z,26.40
2018-06-16T22:41:44.198Z,30.20
2018-06-16T22:44:14.527Z,41.97
2018-06-16T22:46:44.703Z,52.00
2018-06-16T22:49:15.313Z,32.37
2018-06-16T22:51:45.481Z,29.90
2018-06-16T22:54:15.870Z,33.87
2018-06-16T22:56:46.600Z,35.00
2018-06-16T22:59:16.759Z,35.17
2018-06-16T23:01:47.146Z,46.33
2018-06-16T23:04:17.335Z,35.43
2018-06-16T23:06:47.701Z,43.70
2018-06-16T23:09:17.884Z,35.43
2018-06-16T23:11:48.222Z,42.03
2018-06-16T23:14:18.358Z,38.80
2018-06-16T23:16:48.673Z,40.00
2018-06-16T23:19:18.897Z,36.53
2018-06-16T23:21:49.335Z,37.87
2018-06-16T23:24:19.487Z,37.40
2018-06-16T23:26:49.887Z,37.20
2018-06-16T23:29:20.075Z,32.23
2018-06-16T23:31:50.535Z,42.13
2018-06-16T23:34:21.042Z,37.57
2018-06-16T23:36:51.497Z,39.67
2018-06-16T23:39:21.653Z,42.80
2018-06-16T23:41:51.939Z,39.13
2018-06-16T23:44:22.129Z,38.17
2018-06-16T23:46:52.589Z,41.33
2018-06-16T23:49:22.745Z,46.50
2018-06-16T23:51:53.137Z,43.30
2018-06-16T23:54:23.323Z,44.97
2018-06-16T23:56:53.718Z,42.13
2018-06-16T23:59:23.907Z,39.50
